LCRA/AKT METAR and TAF weather

Enter ICAO airport designator
Station Type Date Time Source
LCRA METAR 2021/05/14 21:50 UTC NOAA

LCRA 142150Z 27006KT CAVOK 19/16 Q1012 NOSIG RMK BLU BLU


Station Type Date Time Source
LCRA Decoded METAR 2021/05/14 21:50 UTC NOAA

Akrotiri, Cyprus (LCRA) 34-35N 032-59E 0M
May 14, 2021 - 05:50 PM EDT / 2021.05.14 2150 UTC
Wind: from the W (270 degrees) at 7 MPH (6 KT):0
Visibility: greater than 7 mile(s):0
Temperature: 66 F (19 C)
Dew Point: 60 F (16 C)
Relative Humidity: 82%
Pressure (altimeter): 29.88 in. Hg (1012 hPa)
ob: LCRA 142150Z 27006KT CAVOK 19/16 Q1012 NOSIG RMK BLU BLU
cycle: 22

Station Type Date Time Source
LCRA TAF 2021/05/14 21:03 UTC NOAA

TAF TAF LCRA 141902Z 1421/1515 26015KT CAVOK
BECMG 1421/1424 27005KT PROB30
TEMPO 1501/1507 08005KT SCT012
BECMG 1509/1512 26015KT
TEMPO 1513/1515 27022G32KT

Example: see airport list